sensor_id;sensor_type;location;lat;lon;timestamp;temperature;humidity
23411;DHT22;11878;51.774;7.220;2023-07-30T00:02:18;16.70;99.90
23411;DHT22;11878;51.774;7.220;2023-07-30T00:05:20;16.70;99.90
23411;DHT22;11878;51.774;7.220;2023-07-30T00:08:23;16.60;99.90
23411;DHT22;11878;51.774;7.220;2023-07-30T00:11:25;16.60;99.90
23411;DHT22;11878;51.774;7.220;2023-07-30T00:14:26;16.60;99.90
23411;DHT22;11878;51.774;7.220;2023-07-30T00:17:28;16.60;99.90
23411;DHT22;11878;51.774;7.220;2023-07-30T00:20:30;16.60;99.90
23411;DHT22;11878;51.774;7.220;2023-07-30T00:23:32;16.60;99.90
23411;DHT22;11878;51.774;7.220;2023-07-30T00:26:34;16.60;99.90
23411;DHT22;11878;51.774;7.220;2023-07-30T00:29:36;16.50;99.90
23411;DHT22;11878;51.774;7.220;2023-07-30T00:32:38;16.50;99.90
23411;DHT22;11878;51.774;7.220;2023-07-30T00:35:46;16.50;99.90
23411;DHT22;11878;51.774;7.220;2023-07-30T00:38:48;16.50;99.90
23411;DHT22;11878;51.774;7.220;2023-07-30T00:41:50;16.40;99.90
23411;DHT22;11878;51.774;7.220;2023-07-30T00:44:52;16.40;99.90
23411;DHT22;11878;51.774;7.220;2023-07-30T00:47:54;16.40;99.90
23411;DHT22;11878;51.774;7.220;2023-07-30T00:50:56;16.30;99.90
23411;DHT22;11878;51.774;7.220;2023-07-30T00:53:59;16.30;99.90
23411;DHT22;11878;51.774;7.220;2023-07-30T00:57:01;16.20;99.90
23411;DHT22;11878;51.774;7.220;2023-07-30T01:00:03;16.20;99.90
23411;DHT22;11878;51.774;7.220;2023-07-30T01:03:07;16.20;99.90
23411;DHT22;11878;51.774;7.220;2023-07-30T01:06:09;16.10;99.90
23411;DHT22;11878;51.774;7.220;2023-07-30T01:09:11;16.10;99.90
23411;DHT22;11878;51.774;7.220;2023-07-30T01:12:13;16.10;99.90
23411;DHT22;11878;51.774;7.220;2023-07-30T01:15:17;16.00;99.90
23411;DHT22;11878;51.774;7.220;2023-07-30T01:18:19;16.00;99.90
23411;DHT22;11878;51.774;7.220;2023-07-30T01:21:20;16.00;99.90
23411;DHT22;11878;51.774;7.220;2023-07-30T01:24:22;15.90;99.90
23411;DHT22;11878;51.774;7.220;2023-07-30T01:27:33;15.90;99.90
23411;DHT22;11878;51.774;7.220;2023-07-30T01:30:41;15.80;99.90
23411;DHT22;11878;51.774;7.220;2023-07-30T01:33:48;15.80;99.90
23411;DHT22;11878;51.774;7.220;2023-07-30T01:36:53;15.80;99.90
23411;DHT22;11878;51.774;7.220;2023-07-30T01:39:58;15.70;99.90
23411;DHT22;11878;51.774;7.220;2023-07-30T01:43:01;15.70;99.90
23411;DHT22;11878;51.774;7.220;2023-07-30T01:46:03;15.60;99.90
23411;DHT22;11878;51.774;7.220;2023-07-30T01:49:05;15.60;99.90
23411;DHT22;11878;51.774;7.220;2023-07-30T01:52:07;15.60;99.90
23411;DHT22;11878;51.774;7.220;2023-07-30T01:55:09;15.60;99.90
23411;DHT22;11878;51.774;7.220;2023-07-30T01:58:11;15.50;99.90
23411;DHT22;11878;51.774;7.220;2023-07-30T02:01:12;15.50;99.90
23411;DHT22;11878;51.774;7.220;2023-07-30T02:04:14;15.50;99.90
23411;DHT22;11878;51.774;7.220;2023-07-30T02:07:18;15.40;99.90
23411;DHT22;11878;51.774;7.220;2023-07-30T02:10:19;15.40;99.90
23411;DHT22;11878;51.774;7.220;2023-07-30T02:13:21;15.30;99.90
23411;DHT22;11878;51.774;7.220;2023-07-30T02:16:24;15.30;99.90
23411;DHT22;11878;51.774;7.220;2023-07-30T02:19:27;15.50;99.90
23411;DHT22;11878;51.774;7.220;2023-07-30T02:22:29;15.30;99.90
23411;DHT22;11878;51.774;7.220;2023-07-30T02:25:31;15.40;99.90
23411;DHT22;11878;51.774;7.220;2023-07-30T02:28:33;15.50;99.90
23411;DHT22;11878;51.774;7.220;2023-07-30T02:31:42;15.20;99.90
23411;DHT22;11878;51.774;7.220;2023-07-30T02:34:44;16.00;99.90
23411;DHT22;11878;51.774;7.220;2023-07-30T02:37:46;15.10;99.90
23411;DHT22;11878;51.774;7.220;2023-07-30T02:40:48;15.40;99.90
23411;DHT22;11878;51.774;7.220;2023-07-30T02:43:50;15.20;99.90
23411;DHT22;11878;51.774;7.220;2023-07-30T02:46:52;15.10;99.90
23411;DHT22;11878;51.774;7.220;2023-07-30T02:49:59;15.00;99.90
23411;DHT22;11878;51.774;7.220;2023-07-30T02:53:01;15.90;99.90
23411;DHT22;11878;51.774;7.220;2023-07-30T02:56:06;16.20;99.90
23411;DHT22;11878;51.774;7.220;2023-07-30T02:59:08;15.90;99.90
23411;DHT22;11878;51.774;7.220;2023-07-30T03:02:10;15.00;99.90
23411;DHT22;11878;51.774;7.220;2023-07-30T03:05:12;14.90;99.90
23411;DHT22;11878;51.774;7.220;2023-07-30T03:08:14;14.90;99.90
23411;DHT22;11878;51.774;7.220;2023-07-30T03:11:19;14.80;99.90
23411;DHT22;11878;51.774;7.220;2023-07-30T03:14:23;14.60;99.90
23411;DHT22;11878;51.774;7.220;2023-07-30T03:17:25;15.30;99.90
23411;DHT22;11878;51.774;7.220;2023-07-30T03:20:27;15.10;99.90
23411;DHT22;11878;51.774;7.220;2023-07-30T03:23:29;15.50;99.90
23411;DHT22;11878;51.774;7.220;2023-07-30T03:26:31;14.60;99.90
23411;DHT22;11878;51.774;7.220;2023-07-30T03:29:35;14.70;99.90
23411;DHT22;11878;51.774;7.220;2023-07-30T03:32:37;14.90;99.90
23411;DHT22;11878;51.774;7.220;2023-07-30T03:35:40;15.80;99.90
23411;DHT22;11878;51.774;7.220;2023-07-30T03:38:42;14.60;99.90
23411;DHT22;11878;51.774;7.220;2023-07-30T03:41:45;15.80;99.90
23411;DHT22;11878;51.774;7.220;2023-07-30T03:44:49;14.60;99.90
23411;DHT22;11878;51.774;7.220;2023-07-30T03:47:51;14.60;99.90
23411;DHT22;11878;51.774;7.220;2023-07-30T03:50:54;15.10;99.90
23411;DHT22;11878;51.774;7.220;2023-07-30T03:53:57;14.60;99.90
23411;DHT22;11878;51.774;7.220;2023-07-30T03:57:00;14.60;99.90
23411;DHT22;11878;51.774;7.220;2023-07-30T04:00:04;16.00;99.90
23411;DHT22;11878;51.774;7.220;2023-07-30T04:03:15;14.60;99.90
23411;DHT22;11878;51.774;7.220;2023-07-30T04:06:21;15.70;99.90
23411;DHT22;11878;51.774;7.220;2023-07-30T04:09:24;15.20;99.90
23411;DHT22;11878;51.774;7.220;2023-07-30T04:12:26;16.20;99.90
23411;DHT22;11878;51.774;7.220;2023-07-30T04:15:28;15.00;99.90
23411;DHT22;11878;51.774;7.220;2023-07-30T04:18:31;15.40;99.90
23411;DHT22;11878;51.774;7.220;2023-07-30T04:21:33;15.10;99.90
23411;DHT22;11878;51.774;7.220;2023-07-30T04:24:35;15.00;99.90
23411;DHT22;11878;51.774;7.220;2023-07-30T04:27:37;15.50;99.90
23411;DHT22;11878;51.774;7.220;2023-07-30T04:30:39;14.50;99.90
23411;DHT22;11878;51.774;7.220;2023-07-30T04:33:49;15.60;99.90
23411;DHT22;11878;51.774;7.220;2023-07-30T04:36:52;14.70;99.90
23411;DHT22;11878;51.774;7.220;2023-07-30T04:39:56;15.90;99.90
23411;DHT22;11878;51.774;7.220;2023-07-30T04:42:59;15.90;99.90
23411;DHT22;11878;51.774;7.220;2023-07-30T04:46:02;15.80;99.90
23411;DHT22;11878;51.774;7.220;2023-07-30T04:49:05;16.20;99.90
23411;DHT22;11878;51.774;7.220;2023-07-30T04:52:08;16.00;99.90
23411;DHT22;11878;51.774;7.220;2023-07-30T04:55:11;16.40;99.90
23411;DHT22;11878;51.774;7.220;2023-07-30T04:58:14;14.90;99.90
23411;DHT22;11878;51.774;7.220;2023-07-30T05:01:16;14.90;99.90
23411;DHT22;11878;51.774;7.220;2023-07-30T05:04:21;15.00;99.90
23411;DHT22;11878;51.774;7.220;2023-07-30T05:07:24;15.70;99.90
23411;DHT22;11878;51.774;7.220;2023-07-30T05:10:26;14.90;99.90
23411;DHT22;11878;51.774;7.220;2023-07-30T05:13:28;16.10;99.90
23411;DHT22;11878;51.774;7.220;2023-07-30T05:16:34;16.30;99.90
23411;DHT22;11878;51.774;7.220;2023-07-30T05:19:38;15.80;99.90
23411;DHT22;11878;51.774;7.220;2023-07-30T05:22:39;15.20;99.90
23411;DHT22;11878;51.774;7.220;2023-07-30T05:25:41;16.00;99.90
23411;DHT22;11878;51.774;7.220;2023-07-30T05:28:44;16.70;99.90
23411;DHT22;11878;51.774;7.220;2023-07-30T05:31:47;16.50;99.90
23411;DHT22;11878;51.774;7.220;2023-07-30T05:34:50;15.30;99.90
23411;DHT22;11878;51.774;7.220;2023-07-30T05:37:52;16.30;99.90
23411;DHT22;11878;51.774;7.220;2023-07-30T05:40:58;14.20;99.90
23411;DHT22;11878;51.774;7.220;2023-07-30T05:44:01;15.80;99.90
23411;DHT22;11878;51.774;7.220;2023-07-30T05:47:03;16.80;99.90
23411;DHT22;11878;51.774;7.220;2023-07-30T05:50:07;16.70;99.90
23411;DHT22;11878;51.774;7.220;2023-07-30T05:53:09;15.30;99.90
23411;DHT22;11878;51.774;7.220;2023-07-30T05:56:16;16.40;99.90
23411;DHT22;11878;51.774;7.220;2023-07-30T05:59:22;15.90;99.90
23411;DHT22;11878;51.774;7.220;2023-07-30T06:02:24;15.20;99.90
23411;DHT22;11878;51.774;7.220;2023-07-30T06:05:26;14.50;99.90
23411;DHT22;11878;51.774;7.220;2023-07-30T06:08:28;16.50;99.90
23411;DHT22;11878;51.774;7.220;2023-07-30T06:11:31;15.90;99.90
23411;DHT22;11878;51.774;7.220;2023-07-30T06:14:33;15.80;99.90
23411;DHT22;11878;51.774;7.220;2023-07-30T06:17:38;15.50;99.90
23411;DHT22;11878;51.774;7.220;2023-07-30T06:20:49;16.90;99.90
23411;DHT22;11878;51.774;7.220;2023-07-30T06:24:15;15.30;99.90
23411;DHT22;11878;51.774;7.220;2023-07-30T06:27:20;15.20;99.90
23411;DHT22;11878;51.774;7.220;2023-07-30T06:30:28;17.00;99.90
23411;DHT22;11878;51.774;7.220;2023-07-30T06:33:30;16.90;99.90
23411;DHT22;11878;51.774;7.220;2023-07-30T06:36:34;16.10;99.90
23411;DHT22;11878;51.774;7.220;2023-07-30T06:39:36;15.90;99.90
23411;DHT22;11878;51.774;7.220;2023-07-30T06:42:38;17.00;99.90
23411;DHT22;11878;51.774;7.220;2023-07-30T06:45:45;15.40;99.90
23411;DHT22;11878;51.774;7.220;2023-07-30T06:48:50;15.40;99.90
23411;DHT22;11878;51.774;7.220;2023-07-30T06:51:57;15.60;99.90
23411;DHT22;11878;51.774;7.220;2023-07-30T06:55:00;17.30;99.90
23411;DHT22;11878;51.774;7.220;2023-07-30T06:58:02;16.20;99.90
23411;DHT22;11878;51.774;7.220;2023-07-30T07:01:09;15.60;99.90
23411;DHT22;11878;51.774;7.220;2023-07-30T07:04:11;17.10;99.90
23411;DHT22;11878;51.774;7.220;2023-07-30T07:07:34;14.90;99.90
23411;DHT22;11878;51.774;7.220;2023-07-30T07:10:41;15.90;99.90
23411;DHT22;11878;51.774;7.220;2023-07-30T07:13:45;16.60;99.90
23411;DHT22;11878;51.774;7.220;2023-07-30T07:16:54;16.60;99.90
23411;DHT22;11878;51.774;7.220;2023-07-30T07:20:06;15.50;99.90
23411;DHT22;11878;51.774;7.220;2023-07-30T07:23:09;16.00;99.90
23411;DHT22;11878;51.774;7.220;2023-07-30T07:26:17;16.20;99.90
23411;DHT22;11878;51.774;7.220;2023-07-30T07:29:19;16.10;99.90
23411;DHT22;11878;51.774;7.220;2023-07-30T07:32:23;17.10;99.90
23411;DHT22;11878;51.774;7.220;2023-07-30T07:35:25;16.60;99.90
23411;DHT22;11878;51.774;7.220;2023-07-30T07:38:28;16.80;99.90
23411;DHT22;11878;51.774;7.220;2023-07-30T07:41:30;16.20;99.90
23411;DHT22;11878;51.774;7.220;2023-07-30T07:44:32;17.60;99.90
23411;DHT22;11878;51.774;7.220;2023-07-30T07:47:34;16.60;99.90
23411;DHT22;11878;51.774;7.220;2023-07-30T07:50:39;16.80;99.90
23411;DHT22;11878;51.774;7.220;2023-07-30T07:53:41;16.40;99.90
23411;DHT22;11878;51.774;7.220;2023-07-30T07:56:47;16.40;99.90
23411;DHT22;11878;51.774;7.220;2023-07-30T07:59:53;16.70;99.90
23411;DHT22;11878;51.774;7.220;2023-07-30T08:02:58;16.50;99.90
23411;DHT22;11878;51.774;7.220;2023-07-30T08:06:00;16.00;99.90
23411;DHT22;11878;51.774;7.220;2023-07-30T08:09:03;18.20;99.90
23411;DHT22;11878;51.774;7.220;2023-07-30T08:12:05;18.20;99.90
23411;DHT22;11878;51.774;7.220;2023-07-30T08:15:07;16.70;99.90
23411;DHT22;11878;51.774;7.220;2023-07-30T08:18:09;16.80;99.90
23411;DHT22;11878;51.774;7.220;2023-07-30T08:21:11;17.20;99.90
23411;DHT22;11878;51.774;7.220;2023-07-30T08:24:16;16.80;99.90
23411;DHT22;11878;51.774;7.220;2023-07-30T08:27:25;17.70;99.90
23411;DHT22;11878;51.774;7.220;2023-07-30T08:30:27;16.90;99.90
23411;DHT22;11878;51.774;7.220;2023-07-30T08:33:29;17.10;99.90
23411;DHT22;11878;51.774;7.220;2023-07-30T08:36:31;17.70;99.90
23411;DHT22;11878;51.774;7.220;2023-07-30T08:39:34;16.90;99.90
23411;DHT22;11878;51.774;7.220;2023-07-30T08:42:37;17.00;99.90
23411;DHT22;11878;51.774;7.220;2023-07-30T08:45:39;18.40;99.90
23411;DHT22;11878;51.774;7.220;2023-07-30T08:48:41;18.10;99.90
23411;DHT22;11878;51.774;7.220;2023-07-30T08:51:48;17.30;99.90
23411;DHT22;11878;51.774;7.220;2023-07-30T08:54:55;17.80;99.90
23411;DHT22;11878;51.774;7.220;2023-07-30T08:58:02;17.30;99.90
23411;DHT22;11878;51.774;7.220;2023-07-30T09:01:08;18.70;99.90
23411;DHT22;11878;51.774;7.220;2023-07-30T09:04:14;18.20;99.90
23411;DHT22;11878;51.774;7.220;2023-07-30T09:07:18;18.30;99.90
23411;DHT22;11878;51.774;7.220;2023-07-30T09:10:26;18.40;99.90
23411;DHT22;11878;51.774;7.220;2023-07-30T09:13:28;18.90;99.90
23411;DHT22;11878;51.774;7.220;2023-07-30T09:16:30;18.10;99.90
23411;DHT22;11878;51.774;7.220;2023-07-30T09:19:35;18.20;99.90
23411;DHT22;11878;51.774;7.220;2023-07-30T09:22:37;18.20;99.90
23411;DHT22;11878;51.774;7.220;2023-07-30T09:25:42;18.90;99.90
23411;DHT22;11878;51.774;7.220;2023-07-30T09:28:44;18.40;99.90
23411;DHT22;11878;51.774;7.220;2023-07-30T09:31:48;18.60;99.90
23411;DHT22;11878;51.774;7.220;2023-07-30T09:34:52;18.00;99.90
23411;DHT22;11878;51.774;7.220;2023-07-30T09:37:59;18.10;99.90
23411;DHT22;11878;51.774;7.220;2023-07-30T09:41:02;19.60;99.90
23411;DHT22;11878;51.774;7.220;2023-07-30T09:44:04;18.90;99.90
23411;DHT22;11878;51.774;7.220;2023-07-30T09:47:10;18.80;99.90
23411;DHT22;11878;51.774;7.220;2023-07-30T09:50:13;18.40;99.90
23411;DHT22;11878;51.774;7.220;2023-07-30T09:53:16;18.60;99.90
23411;DHT22;11878;51.774;7.220;2023-07-30T09:56:19;20.00;99.90
23411;DHT22;11878;51.774;7.220;2023-07-30T09:59:23;20.60;99.90
23411;DHT22;11878;51.774;7.220;2023-07-30T10:02:27;20.00;99.90
23411;DHT22;11878;51.774;7.220;2023-07-30T10:05:35;20.30;99.90
23411;DHT22;11878;51.774;7.220;2023-07-30T10:08:39;19.10;99.90
23411;DHT22;11878;51.774;7.220;2023-07-30T10:11:42;19.20;99.90
23411;DHT22;11878;51.774;7.220;2023-07-30T10:14:45;18.90;99.90
23411;DHT22;11878;51.774;7.220;2023-07-30T10:17:55;18.90;99.90
23411;DHT22;11878;51.774;7.220;2023-07-30T10:20:57;18.70;99.90
23411;DHT22;11878;51.774;7.220;2023-07-30T10:24:02;18.90;99.90
23411;DHT22;11878;51.774;7.220;2023-07-30T10:27:06;19.20;99.90
23411;DHT22;11878;51.774;7.220;2023-07-30T10:30:21;19.70;99.90
23411;DHT22;11878;51.774;7.220;2023-07-30T10:33:43;20.10;99.90
23411;DHT22;11878;51.774;7.220;2023-07-30T10:36:50;19.70;99.90
23411;DHT22;11878;51.774;7.220;2023-07-30T10:39:51;19.30;99.90
23411;DHT22;11878;51.774;7.220;2023-07-30T10:42:57;18.90;99.90
23411;DHT22;11878;51.774;7.220;2023-07-30T10:45:59;18.70;99.90
23411;DHT22;11878;51.774;7.220;2023-07-30T10:49:03;18.40;99.90
23411;DHT22;11878;51.774;7.220;2023-07-30T10:52:07;19.80;99.90
23411;DHT22;11878;51.774;7.220;2023-07-30T10:55:09;18.70;99.90
23411;DHT22;11878;51.774;7.220;2023-07-30T10:58:11;19.10;99.90
23411;DHT22;11878;51.774;7.220;2023-07-30T11:01:15;18.20;99.90
23411;DHT22;11878;51.774;7.220;2023-07-30T11:04:19;18.30;99.90
23411;DHT22;11878;51.774;7.220;2023-07-30T11:07:22;18.30;99.90
23411;DHT22;11878;51.774;7.220;2023-07-30T11:10:24;18.90;99.90
23411;DHT22;11878;51.774;7.220;2023-07-30T11:13:28;19.30;99.90
23411;DHT22;11878;51.774;7.220;2023-07-30T11:16:31;19.40;99.90
23411;DHT22;11878;51.774;7.220;2023-07-30T11:19:42;19.60;99.90
23411;DHT22;11878;51.774;7.220;2023-07-30T11:22:46;19.50;99.90
23411;DHT22;11878;51.774;7.220;2023-07-30T11:25:49;20.10;99.90
23411;DHT22;11878;51.774;7.220;2023-07-30T11:28:51;19.40;99.90
23411;DHT22;11878;51.774;7.220;2023-07-30T11:31:57;19.60;99.90
23411;DHT22;11878;51.774;7.220;2023-07-30T11:35:04;19.60;99.90
23411;DHT22;11878;51.774;7.220;2023-07-30T11:38:07;19.00;99.90
23411;DHT22;11878;51.774;7.220;2023-07-30T11:41:10;19.80;99.90
23411;DHT22;11878;51.774;7.220;2023-07-30T11:44:35;19.70;99.90
23411;DHT22;11878;51.774;7.220;2023-07-30T11:47:40;19.30;99.90
23411;DHT22;11878;51.774;7.220;2023-07-30T11:50:50;18.90;99.90
23411;DHT22;11878;51.774;7.220;2023-07-30T11:56:55;19.30;99.90
23411;DHT22;11878;51.774;7.220;2023-07-30T11:59:58;18.50;99.90
23411;DHT22;11878;51.774;7.220;2023-07-30T12:03:06;18.30;99.90
23411;DHT22;11878;51.774;7.220;2023-07-30T12:06:12;19.30;99.90
23411;DHT22;11878;51.774;7.220;2023-07-30T12:09:22;18.40;99.90
23411;DHT22;11878;51.774;7.220;2023-07-30T12:12:27;18.20;99.90
23411;DHT22;11878;51.774;7.220;2023-07-30T12:15:29;17.80;99.90
23411;DHT22;11878;51.774;7.220;2023-07-30T12:18:31;16.90;99.90
23411;DHT22;11878;51.774;7.220;2023-07-30T12:21:33;16.30;99.90
23411;DHT22;11878;51.774;7.220;2023-07-30T12:24:40;16.80;99.90
23411;DHT22;11878;51.774;7.220;2023-07-30T12:27:42;16.90;99.90
23411;DHT22;11878;51.774;7.220;2023-07-30T12:30:47;16.40;99.90
23411;DHT22;11878;51.774;7.220;2023-07-30T12:33:49;16.90;99.90
23411;DHT22;11878;51.774;7.220;2023-07-30T12:36:52;16.70;99.90
23411;DHT22;11878;51.774;7.220;2023-07-30T12:39:55;15.60;99.90
23411;DHT22;11878;51.774;7.220;2023-07-30T12:43:06;16.60;99.90
23411;DHT22;11878;51.774;7.220;2023-07-30T12:46:12;16.60;99.90
23411;DHT22;11878;51.774;7.220;2023-07-30T12:49:14;16.80;99.90
23411;DHT22;11878;51.774;7.220;2023-07-30T12:52:15;17.50;99.90
23411;DHT22;11878;51.774;7.220;2023-07-30T12:55:19;16.10;99.90
23411;DHT22;11878;51.774;7.220;2023-07-30T12:58:21;17.40;99.90
23411;DHT22;11878;51.774;7.220;2023-07-30T13:01:23;15.20;99.90
23411;DHT22;11878;51.774;7.220;2023-07-30T13:04:26;16.60;99.90
23411;DHT22;11878;51.774;7.220;2023-07-30T13:07:31;18.40;99.90
23411;DHT22;11878;51.774;7.220;2023-07-30T13:10:36;17.50;99.90
23411;DHT22;11878;51.774;7.220;2023-07-30T13:13:39;16.50;99.90
23411;DHT22;11878;51.774;7.220;2023-07-30T13:16:41;16.50;99.90
23411;DHT22;11878;51.774;7.220;2023-07-30T13:19:43;17.90;99.90
23411;DHT22;11878;51.774;7.220;2023-07-30T13:22:50;18.40;99.90
23411;DHT22;11878;51.774;7.220;2023-07-30T13:25:53;17.60;99.90
23411;DHT22;11878;51.774;7.220;2023-07-30T13:28:55;18.50;99.90
23411;DHT22;11878;51.774;7.220;2023-07-30T13:31:57;17.50;99.90
23411;DHT22;11878;51.774;7.220;2023-07-30T13:34:59;17.50;99.90
23411;DHT22;11878;51.774;7.220;2023-07-30T13:38:01;17.50;99.90
23411;DHT22;11878;51.774;7.220;2023-07-30T13:41:08;17.60;99.90
23411;DHT22;11878;51.774;7.220;2023-07-30T13:44:10;17.50;99.90
23411;DHT22;11878;51.774;7.220;2023-07-30T13:47:15;17.80;99.90
23411;DHT22;11878;51.774;7.220;2023-07-30T13:50:18;18.20;99.90
23411;DHT22;11878;51.774;7.220;2023-07-30T13:53:22;17.70;99.90
23411;DHT22;11878;51.774;7.220;2023-07-30T13:56:25;17.80;99.90
23411;DHT22;11878;51.774;7.220;2023-07-30T13:59:27;18.00;99.90
23411;DHT22;11878;51.774;7.220;2023-07-30T14:02:30;18.00;99.90
23411;DHT22;11878;51.774;7.220;2023-07-30T14:05:39;18.40;99.90
23411;DHT22;11878;51.774;7.220;2023-07-30T14:08:41;18.20;99.90
23411;DHT22;11878;51.774;7.220;2023-07-30T14:11:44;18.70;99.90
23411;DHT22;11878;51.774;7.220;2023-07-30T14:14:49;18.30;99.90
23411;DHT22;11878;51.774;7.220;2023-07-30T14:17:51;18.20;99.90
23411;DHT22;11878;51.774;7.220;2023-07-30T14:21:06;18.30;99.90
23411;DHT22;11878;51.774;7.220;2023-07-30T14:24:10;18.50;99.90
23411;DHT22;11878;51.774;7.220;2023-07-30T14:27:12;18.40;99.90
23411;DHT22;11878;51.774;7.220;2023-07-30T14:30:14;18.50;99.90
23411;DHT22;11878;51.774;7.220;2023-07-30T14:33:17;19.50;99.90
23411;DHT22;11878;51.774;7.220;2023-07-30T14:36:19;18.50;99.90
23411;DHT22;11878;51.774;7.220;2023-07-30T14:39:29;18.60;99.90
23411;DHT22;11878;51.774;7.220;2023-07-30T14:43:01;18.50;99.90
23411;DHT22;11878;51.774;7.220;2023-07-30T14:46:05;18.60;99.90
23411;DHT22;11878;51.774;7.220;2023-07-30T14:49:16;18.90;99.90
23411;DHT22;11878;51.774;7.220;2023-07-30T14:52:33;20.20;99.90
23411;DHT22;11878;51.774;7.220;2023-07-30T14:55:48;19.10;99.90
23411;DHT22;11878;51.774;7.220;2023-07-30T14:58:50;19.20;99.90
23411;DHT22;11878;51.774;7.220;2023-07-30T15:01:57;19.10;99.90
23411;DHT22;11878;51.774;7.220;2023-07-30T15:05:07;19.30;99.90
23411;DHT22;11878;51.774;7.220;2023-07-30T15:08:10;19.20;99.90
23411;DHT22;11878;51.774;7.220;2023-07-30T15:11:15;19.70;99.90
23411;DHT22;11878;51.774;7.220;2023-07-30T15:14:28;19.20;99.90
23411;DHT22;11878;51.774;7.220;2023-07-30T15:17:35;19.10;99.90
23411;DHT22;11878;51.774;7.220;2023-07-30T15:20:44;19.30;99.90
23411;DHT22;11878;51.774;7.220;2023-07-30T15:23:49;19.10;99.90
23411;DHT22;11878;51.774;7.220;2023-07-30T15:26:53;19.00;99.90
23411;DHT22;11878;51.774;7.220;2023-07-30T15:29:57;19.20;99.90
23411;DHT22;11878;51.774;7.220;2023-07-30T15:33:24;19.80;99.90
23411;DHT22;11878;51.774;7.220;2023-07-30T15:36:29;19.40;99.90
23411;DHT22;11878;51.774;7.220;2023-07-30T15:39:31;19.20;99.90
23411;DHT22;11878;51.774;7.220;2023-07-30T15:42:53;20.00;99.90
23411;DHT22;11878;51.774;7.220;2023-07-30T15:45:58;19.30;99.90
23411;DHT22;11878;51.774;7.220;2023-07-30T15:49:14;19.60;99.90
23411;DHT22;11878;51.774;7.220;2023-07-30T15:52:16;20.20;99.90
23411;DHT22;11878;51.774;7.220;2023-07-30T15:55:22;19.20;99.90
23411;DHT22;11878;51.774;7.220;2023-07-30T15:58:26;20.00;99.90
23411;DHT22;11878;51.774;7.220;2023-07-30T16:01:37;19.70;99.90
23411;DHT22;11878;51.774;7.220;2023-07-30T16:04:42;18.20;99.90
23411;DHT22;11878;51.774;7.220;2023-07-30T16:07:48;18.90;99.90
23411;DHT22;11878;51.774;7.220;2023-07-30T16:11:08;19.00;99.90
23411;DHT22;11878;51.774;7.220;2023-07-30T16:14:11;20.40;99.90
23411;DHT22;11878;51.774;7.220;2023-07-30T16:17:24;19.10;99.90
23411;DHT22;11878;51.774;7.220;2023-07-30T16:20:32;19.70;99.90
23411;DHT22;11878;51.774;7.220;2023-07-30T16:23:44;19.20;99.90
23411;DHT22;11878;51.774;7.220;2023-07-30T16:26:52;19.20;99.90
23411;DHT22;11878;51.774;7.220;2023-07-30T16:29:59;19.30;99.90
23411;DHT22;11878;51.774;7.220;2023-07-30T16:33:24;19.80;99.90
23411;DHT22;11878;51.774;7.220;2023-07-30T16:36:28;19.30;99.90
23411;DHT22;11878;51.774;7.220;2023-07-30T16:39:30;19.90;99.90
23411;DHT22;11878;51.774;7.220;2023-07-30T16:42:33;19.70;99.90
23411;DHT22;11878;51.774;7.220;2023-07-30T16:45:35;20.00;99.90
23411;DHT22;11878;51.774;7.220;2023-07-30T16:48:40;19.00;99.90
23411;DHT22;11878;51.774;7.220;2023-07-30T16:51:42;19.20;99.90
23411;DHT22;11878;51.774;7.220;2023-07-30T16:55:02;19.30;99.90
23411;DHT22;11878;51.774;7.220;2023-07-30T16:58:25;19.30;99.90
23411;DHT22;11878;51.774;7.220;2023-07-30T17:01:32;19.30;99.90
23411;DHT22;11878;51.774;7.220;2023-07-30T17:04:50;19.30;99.90
23411;DHT22;11878;51.774;7.220;2023-07-30T17:08:20;19.30;99.90
23411;DHT22;11878;51.774;7.220;2023-07-30T17:11:29;18.90;99.90
23411;DHT22;11878;51.774;7.220;2023-07-30T17:14:40;19.20;99.90
23411;DHT22;11878;51.774;7.220;2023-07-30T17:17:54;19.10;99.90
23411;DHT22;11878;51.774;7.220;2023-07-30T17:21:22;19.30;99.90
23411;DHT22;11878;51.774;7.220;2023-07-30T17:24:32;19.10;99.90
23411;DHT22;11878;51.774;7.220;2023-07-30T17:27:49;20.50;99.90
23411;DHT22;11878;51.774;7.220;2023-07-30T17:30:52;19.10;99.90
23411;DHT22;11878;51.774;7.220;2023-07-30T17:34:02;19.20;99.90
23411;DHT22;11878;51.774;7.220;2023-07-30T17:37:09;19.20;99.90
23411;DHT22;11878;51.774;7.220;2023-07-30T17:40:17;18.90;99.90
23411;DHT22;11878;51.774;7.220;2023-07-30T17:43:24;19.10;99.90
23411;DHT22;11878;51.774;7.220;2023-07-30T17:46:26;19.20;99.90
23411;DHT22;11878;51.774;7.220;2023-07-30T17:49:28;19.70;99.90
23411;DHT22;11878;51.774;7.220;2023-07-30T17:52:38;19.80;99.90
23411;DHT22;11878;51.774;7.220;2023-07-30T17:55:46;18.80;99.90
23411;DHT22;11878;51.774;7.220;2023-07-30T17:59:00;18.70;99.90
23411;DHT22;11878;51.774;7.220;2023-07-30T18:02:05;18.70;99.90
23411;DHT22;11878;51.774;7.220;2023-07-30T18:05:08;18.80;99.90
23411;DHT22;11878;51.774;7.220;2023-07-30T18:08:18;18.60;99.90
23411;DHT22;11878;51.774;7.220;2023-07-30T18:11:22;18.50;99.90
23411;DHT22;11878;51.774;7.220;2023-07-30T18:17:51;18.80;99.90
23411;DHT22;11878;51.774;7.220;2023-07-30T18:21:01;19.70;99.90
23411;DHT22;11878;51.774;7.220;2023-07-30T18:24:04;19.20;99.90
23411;DHT22;11878;51.774;7.220;2023-07-30T18:27:08;18.50;99.90
23411;DHT22;11878;51.774;7.220;2023-07-30T18:30:37;19.20;99.90
23411;DHT22;11878;51.774;7.220;2023-07-30T18:33:53;18.00;99.90
23411;DHT22;11878;51.774;7.220;2023-07-30T18:37:01;17.80;99.90
23411;DHT22;11878;51.774;7.220;2023-07-30T18:40:14;17.70;99.90
23411;DHT22;11878;51.774;7.220;2023-07-30T18:43:26;17.70;99.90
23411;DHT22;11878;51.774;7.220;2023-07-30T18:46:44;19.30;99.90
23411;DHT22;11878;51.774;7.220;2023-07-30T18:49:52;18.20;99.90
23411;DHT22;11878;51.774;7.220;2023-07-30T18:53:03;17.00;99.90
23411;DHT22;11878;51.774;7.220;2023-07-30T18:56:09;17.90;99.90
23411;DHT22;11878;51.774;7.220;2023-07-30T18:59:11;18.50;99.90
23411;DHT22;11878;51.774;7.220;2023-07-30T19:02:22;18.90;99.90
23411;DHT22;11878;51.774;7.220;2023-07-30T19:05:27;17.50;99.90
23411;DHT22;11878;51.774;7.220;2023-07-30T19:08:35;17.40;99.90
23411;DHT22;11878;51.774;7.220;2023-07-30T19:11:43;17.10;99.90
23411;DHT22;11878;51.774;7.220;2023-07-30T19:14:52;18.70;99.90
23411;DHT22;11878;51.774;7.220;2023-07-30T19:18:03;16.80;99.90
23411;DHT22;11878;51.774;7.220;2023-07-30T19:21:05;16.90;99.90
23411;DHT22;11878;51.774;7.220;2023-07-30T19:24:15;16.40;99.90
23411;DHT22;11878;51.774;7.220;2023-07-30T19:27:33;16.20;99.90
23411;DHT22;11878;51.774;7.220;2023-07-30T19:30:41;17.20;99.90
23411;DHT22;11878;51.774;7.220;2023-07-30T19:33:49;16.80;99.90
23411;DHT22;11878;51.774;7.220;2023-07-30T19:37:00;16.00;99.90